Terminal Aerodrome Forecast
Issued by NWS

Home | Current Version | Previous Version | Text Only | Print | Product List | Glossary On
Versions: 1 2 3 4 5 6 7 8 9 10 11 12 13 14 15 16 17 18 19 20 21 22 23 24 25 26 27 28 29 30 31 32 33 34 35 36 37 38 39 40 41 42 43 44 45 46 47 48 49 50
000
FTUS45 KBOU 281505 AAC
TAFAPA
TAF AMD
KAPA 281505Z 2815/0112 34005KT P6SM VCFG SCT007 BKN060
     FM281600 34005KT P6SM SCT060 SCT150
     FM282100 04006KT P6SM VCSH FEW008 SCT025 OVC040
     FM010000 08005KT 2SM -SN BR BKN006 OVC012
      TEMPO 0102/0106 3/4SM -SN BR OVC004
     FM010800 04006KT 4SM -SN BR SCT007 OVC015=

USA.gov is the U.S. government's official web portal to all federal, state and local government web resources and services.